sensor_id;sensor_type;location;lat;lon;timestamp;P1;durP1;ratioP1;P2;durP2;ratioP2
52368;SDS011;38298;50.346;3.526;2022-08-21T07:16:16;4.97;;;1.20;;
52368;SDS011;38298;50.346;3.526;2022-08-21T07:18:42;9.75;;;1.50;;
52368;SDS011;38298;50.346;3.526;2022-08-21T07:21:09;9.93;;;1.30;;
52368;SDS011;38298;50.346;3.526;2022-08-21T07:23:36;6.45;;;1.30;;
52368;SDS011;38298;50.346;3.526;2022-08-21T07:26:06;11.10;;;1.33;;
52368;SDS011;38298;50.346;3.526;2022-08-21T07:28:32;5.07;;;1.20;;
52368;SDS011;38298;50.346;3.526;2022-08-21T07:30:59;2.72;;;0.95;;
52368;SDS011;38298;50.346;3.526;2022-08-21T07:33:26;4.63;;;1.10;;
52368;SDS011;38298;50.346;3.526;2022-08-21T07:35:53;14.43;;;1.10;;
52368;SDS011;38298;50.346;3.526;2022-08-21T07:38:20;4.65;;;1.00;;
52368;SDS011;38298;50.346;3.526;2022-08-21T07:40:46;5.60;;;1.23;;
52368;SDS011;38298;50.346;3.526;2022-08-21T07:43:13;4.57;;;1.45;;
52368;SDS011;38298;50.346;3.526;2022-08-21T07:45:41;5.15;;;1.08;;
52368;SDS011;38298;50.346;3.526;2022-08-21T07:48:08;5.75;;;0.80;;
52368;SDS011;38298;50.346;3.526;2022-08-21T07:50:34;6.50;;;1.50;;
52368;SDS011;38298;50.346;3.526;2022-08-21T07:53:00;4.45;;;0.98;;
52368;SDS011;38298;50.346;3.526;2022-08-21T07:55:27;8.13;;;1.30;;
52368;SDS011;38298;50.346;3.526;2022-08-21T07:57:53;6.63;;;1.33;;
52368;SDS011;38298;50.346;3.526;2022-08-21T08:00:21;6.30;;;1.02;;
52368;SDS011;38298;50.346;3.526;2022-08-21T08:02:48;4.55;;;1.00;;
52368;SDS011;38298;50.346;3.526;2022-08-21T08:05:15;4.25;;;1.10;;
52368;SDS011;38298;50.346;3.526;2022-08-21T08:07:42;10.27;;;1.40;;
52368;SDS011;38298;50.346;3.526;2022-08-21T08:10:09;4.22;;;0.90;;
52368;SDS011;38298;50.346;3.526;2022-08-21T08:12:36;4.55;;;0.93;;
52368;SDS011;38298;50.346;3.526;2022-08-21T08:15:03;9.38;;;1.25;;
52368;SDS011;38298;50.346;3.526;2022-08-21T08:17:30;4.38;;;1.20;;
52368;SDS011;38298;50.346;3.526;2022-08-21T08:19:57;6.55;;;1.20;;
52368;SDS011;38298;50.346;3.526;2022-08-21T08:22:26;10.77;;;1.42;;
52368;SDS011;38298;50.346;3.526;2022-08-21T08:24:52;5.60;;;1.65;;
52368;SDS011;38298;50.346;3.526;2022-08-21T08:27:18;7.75;;;1.45;;
52368;SDS011;38298;50.346;3.526;2022-08-21T08:29:45;9.95;;;1.10;;
52368;SDS011;38298;50.346;3.526;2022-08-21T08:32:11;10.15;;;1.58;;
52368;SDS011;38298;50.346;3.526;2022-08-21T08:34:37;6.15;;;1.30;;
52368;SDS011;38298;50.346;3.526;2022-08-21T08:37:05;7.05;;;1.30;;
52368;SDS011;38298;50.346;3.526;2022-08-21T08:39:31;8.07;;;1.23;;
52368;SDS011;38298;50.346;3.526;2022-08-21T08:42:07;6.78;;;1.27;;
52368;SDS011;38298;50.346;3.526;2022-08-21T08:44:39;9.73;;;1.08;;
52368;SDS011;38298;50.346;3.526;2022-08-21T08:47:06;2.70;;;0.77;;
52368;SDS011;38298;50.346;3.526;2022-08-21T08:49:36;5.72;;;1.00;;
52368;SDS011;38298;50.346;3.526;2022-08-21T08:52:15;8.90;;;1.13;;
52368;SDS011;38298;50.346;3.526;2022-08-21T08:54:44;9.55;;;1.08;;
52368;SDS011;38298;50.346;3.526;2022-08-21T08:59:41;10.43;;;1.08;;
52368;SDS011;38298;50.346;3.526;2022-08-21T09:02:08;7.07;;;1.13;;
52368;SDS011;38298;50.346;3.526;2022-08-21T09:04:35;8.98;;;0.93;;
52368;SDS011;38298;50.346;3.526;2022-08-21T09:07:06;6.65;;;1.42;;
52368;SDS011;38298;50.346;3.526;2022-08-21T09:18:05;7.72;;;1.15;;
52368;SDS011;38298;50.346;3.526;2022-08-21T09:25:57;12.82;;;1.50;;
52368;SDS011;38298;50.346;3.526;2022-08-21T09:28:24;5.88;;;1.17;;
52368;SDS011;38298;50.346;3.526;2022-08-21T09:30:51;5.18;;;0.80;;
52368;SDS011;38298;50.346;3.526;2022-08-21T09:33:20;2.70;;;0.80;;
52368;SDS011;38298;50.346;3.526;2022-08-21T09:35:53;6.22;;;0.88;;
52368;SDS011;38298;50.346;3.526;2022-08-21T09:38:28;6.88;;;1.10;;
52368;SDS011;38298;50.346;3.526;2022-08-21T09:41:01;3.00;;;1.17;;
52368;SDS011;38298;50.346;3.526;2022-08-21T09:43:28;4.20;;;1.10;;
52368;SDS011;38298;50.346;3.526;2022-08-21T09:46:05;5.03;;;1.15;;
52368;SDS011;38298;50.346;3.526;2022-08-21T09:48:38;9.18;;;1.20;;
52368;SDS011;38298;50.346;3.526;2022-08-21T09:51:06;5.32;;;1.30;;
52368;SDS011;38298;50.346;3.526;2022-08-21T09:53:32;3.65;;;0.70;;
52368;SDS011;38298;50.346;3.526;2022-08-21T09:56:02;4.22;;;1.25;;
52368;SDS011;38298;50.346;3.526;2022-08-21T09:58:49;8.25;;;1.40;;
52368;SDS011;38298;50.346;3.526;2022-08-21T10:01:19;11.85;;;1.20;;
52368;SDS011;38298;50.346;3.526;2022-08-21T10:03:45;3.65;;;1.20;;
52368;SDS011;38298;50.346;3.526;2022-08-21T10:06:21;10.27;;;1.15;;
52368;SDS011;38298;50.346;3.526;2022-08-21T10:08:47;5.80;;;0.90;;
52368;SDS011;38298;50.346;3.526;2022-08-21T10:11:14;5.07;;;0.85;;
52368;SDS011;38298;50.346;3.526;2022-08-21T10:13:54;6.15;;;1.10;;
52368;SDS011;38298;50.346;3.526;2022-08-21T10:16:29;6.80;;;1.33;;
52368;SDS011;38298;50.346;3.526;2022-08-21T10:29:12;6.60;;;0.90;;
52368;SDS011;38298;50.346;3.526;2022-08-21T10:34:13;6.20;;;0.88;;
52368;SDS011;38298;50.346;3.526;2022-08-21T10:37:04;7.28;;;1.00;;
52368;SDS011;38298;50.346;3.526;2022-08-21T10:42:09;6.95;;;1.17;;
52368;SDS011;38298;50.346;3.526;2022-08-21T10:44:39;4.53;;;0.98;;
52368;SDS011;38298;50.346;3.526;2022-08-21T10:47:16;4.60;;;0.88;;
52368;SDS011;38298;50.346;3.526;2022-08-21T10:52:35;5.05;;;1.00;;
52368;SDS011;38298;50.346;3.526;2022-08-21T10:57:41;3.58;;;1.60;;
52368;SDS011;38298;50.346;3.526;2022-08-21T11:00:11;7.82;;;1.08;;
52368;SDS011;38298;50.346;3.526;2022-08-21T11:08:02;8.50;;;1.00;;
52368;SDS011;38298;50.346;3.526;2022-08-21T11:10:50;6.35;;;0.90;;
52368;SDS011;38298;50.346;3.526;2022-08-21T11:13:36;5.03;;;1.10;;
52368;SDS011;38298;50.346;3.526;2022-08-21T11:16:14;5.28;;;1.10;;
52368;SDS011;38298;50.346;3.526;2022-08-21T11:18:45;5.18;;;1.35;;
52368;SDS011;38298;50.346;3.526;2022-08-21T11:23:43;6.93;;;1.52;;
52368;SDS011;38298;50.346;3.526;2022-08-21T11:26:12;4.43;;;0.82;;
52368;SDS011;38298;50.346;3.526;2022-08-21T11:28:43;4.10;;;1.00;;
52368;SDS011;38298;50.346;3.526;2022-08-21T11:36:34;4.35;;;1.10;;
52368;SDS011;38298;50.346;3.526;2022-08-21T11:41:32;9.02;;;1.30;;
52368;SDS011;38298;50.346;3.526;2022-08-21T11:44:11;6.30;;;1.00;;
52368;SDS011;38298;50.346;3.526;2022-08-21T11:54:23;5.63;;;0.95;;
52368;SDS011;38298;50.346;3.526;2022-08-21T11:57:00;5.38;;;1.50;;
52368;SDS011;38298;50.346;3.526;2022-08-21T11:59:41;7.78;;;1.20;;
52368;SDS011;38298;50.346;3.526;2022-08-21T12:02:13;5.90;;;1.50;;
52368;SDS011;38298;50.346;3.526;2022-08-21T12:04:47;5.60;;;0.85;;
52368;SDS011;38298;50.346;3.526;2022-08-21T12:07:16;4.28;;;0.80;;
52368;SDS011;38298;50.346;3.526;2022-08-21T12:09:51;5.40;;;0.82;;
52368;SDS011;38298;50.346;3.526;2022-08-21T12:12:28;4.25;;;0.80;;
52368;SDS011;38298;50.346;3.526;2022-08-21T12:17:38;4.90;;;0.90;;
52368;SDS011;38298;50.346;3.526;2022-08-21T12:20:21;5.38;;;1.35;;
52368;SDS011;38298;50.346;3.526;2022-08-21T12:22:49;7.95;;;1.50;;
52368;SDS011;38298;50.346;3.526;2022-08-21T12:25:18;6.75;;;1.10;;
52368;SDS011;38298;50.346;3.526;2022-08-21T12:30:33;4.13;;;1.10;;
52368;SDS011;38298;50.346;3.526;2022-08-21T12:33:01;6.80;;;1.30;;
52368;SDS011;38298;50.346;3.526;2022-08-21T12:35:31;5.97;;;1.30;;
52368;SDS011;38298;50.346;3.526;2022-08-21T12:40:39;5.55;;;1.00;;
52368;SDS011;38298;50.346;3.526;2022-08-21T12:43:06;8.82;;;1.08;;
52368;SDS011;38298;50.346;3.526;2022-08-21T12:45:40;2.95;;;0.80;;
52368;SDS011;38298;50.346;3.526;2022-08-21T12:50:50;3.80;;;1.02;;
52368;SDS011;38298;50.346;3.526;2022-08-21T12:55:46;5.05;;;0.90;;
52368;SDS011;38298;50.346;3.526;2022-08-21T12:58:17;4.05;;;0.88;;
52368;SDS011;38298;50.346;3.526;2022-08-21T13:00:47;6.85;;;1.23;;
52368;SDS011;38298;50.346;3.526;2022-08-21T13:03:14;4.85;;;0.80;;
52368;SDS011;38298;50.346;3.526;2022-08-21T13:05:41;4.15;;;1.00;;
52368;SDS011;38298;50.346;3.526;2022-08-21T13:08:09;5.70;;;0.75;;
52368;SDS011;38298;50.346;3.526;2022-08-21T13:10:36;3.50;;;0.90;;
52368;SDS011;38298;50.346;3.526;2022-08-21T13:13:04;5.47;;;0.80;;
52368;SDS011;38298;50.346;3.526;2022-08-21T13:15:32;5.25;;;1.23;;
52368;SDS011;38298;50.346;3.526;2022-08-21T13:18:00;6.22;;;1.30;;
52368;SDS011;38298;50.346;3.526;2022-08-21T13:20:30;8.18;;;1.00;;
52368;SDS011;38298;50.346;3.526;2022-08-21T13:22:57;5.93;;;1.30;;
52368;SDS011;38298;50.346;3.526;2022-08-21T13:25:28;3.85;;;1.00;;
52368;SDS011;38298;50.346;3.526;2022-08-21T13:28:04;4.10;;;1.02;;
52368;SDS011;38298;50.346;3.526;2022-08-21T13:30:31;6.57;;;0.88;;
52368;SDS011;38298;50.346;3.526;2022-08-21T13:32:58;6.32;;;1.00;;
52368;SDS011;38298;50.346;3.526;2022-08-21T13:36:00;7.70;;;1.05;;
52368;SDS011;38298;50.346;3.526;2022-08-21T13:38:17;6.10;;;0.90;;
52368;SDS011;38298;50.346;3.526;2022-08-21T13:40:49;5.22;;;1.00;;
52368;SDS011;38298;50.346;3.526;2022-08-21T13:43:18;8.65;;;1.08;;
52368;SDS011;38298;50.346;3.526;2022-08-21T13:45:50;6.18;;;0.80;;
52368;SDS011;38298;50.346;3.526;2022-08-21T13:48:17;4.32;;;0.95;;
52368;SDS011;38298;50.346;3.526;2022-08-21T13:50:43;6.65;;;1.48;;
52368;SDS011;38298;50.346;3.526;2022-08-21T13:53:21;4.93;;;0.98;;
52368;SDS011;38298;50.346;3.526;2022-08-21T13:55:47;7.13;;;2.00;;
52368;SDS011;38298;50.346;3.526;2022-08-21T13:58:23;6.32;;;1.80;;
52368;SDS011;38298;50.346;3.526;2022-08-21T14:00:50;7.82;;;1.02;;
52368;SDS011;38298;50.346;3.526;2022-08-21T14:05:57;8.65;;;1.08;;
52368;SDS011;38298;50.346;3.526;2022-08-21T14:10:56;12.85;;;1.63;;
52368;SDS011;38298;50.346;3.526;2022-08-21T14:13:36;7.78;;;1.20;;
52368;SDS011;38298;50.346;3.526;2022-08-21T14:16:03;4.60;;;1.35;;
52368;SDS011;38298;50.346;3.526;2022-08-21T14:18:42;12.02;;;1.40;;
52368;SDS011;38298;50.346;3.526;2022-08-21T14:21:09;6.57;;;1.05;;
52368;SDS011;38298;50.346;3.526;2022-08-21T14:23:36;5.70;;;0.93;;
52368;SDS011;38298;50.346;3.526;2022-08-21T14:26:04;4.25;;;0.80;;
52368;SDS011;38298;50.346;3.526;2022-08-21T14:28:34;3.92;;;0.98;;
52368;SDS011;38298;50.346;3.526;2022-08-21T14:33:38;3.85;;;0.98;;
52368;SDS011;38298;50.346;3.526;2022-08-21T14:36:04;8.50;;;0.90;;
52368;SDS011;38298;50.346;3.526;2022-08-21T14:38:30;5.63;;;1.00;;
52368;SDS011;38298;50.346;3.526;2022-08-21T14:40:59;3.35;;;0.88;;
52368;SDS011;38298;50.346;3.526;2022-08-21T14:43:26;6.50;;;1.63;;
52368;SDS011;38298;50.346;3.526;2022-08-21T14:45:53;7.75;;;1.00;;
52368;SDS011;38298;50.346;3.526;2022-08-21T14:48:19;7.60;;;1.10;;
52368;SDS011;38298;50.346;3.526;2022-08-21T14:50:45;9.25;;;1.35;;
52368;SDS011;38298;50.346;3.526;2022-08-21T14:53:12;8.50;;;1.40;;
52368;SDS011;38298;50.346;3.526;2022-08-21T14:55:38;5.78;;;1.25;;
52368;SDS011;38298;50.346;3.526;2022-08-21T14:58:23;6.93;;;1.50;;
52368;SDS011;38298;50.346;3.526;2022-08-21T15:00:51;9.45;;;1.40;;
52368;SDS011;38298;50.346;3.526;2022-08-21T15:03:17;4.07;;;1.05;;
52368;SDS011;38298;50.346;3.526;2022-08-21T15:05:43;6.25;;;1.20;;
52368;SDS011;38298;50.346;3.526;2022-08-21T15:08:10;5.55;;;1.10;;
52368;SDS011;38298;50.346;3.526;2022-08-21T15:10:36;8.18;;;1.00;;
52368;SDS011;38298;50.346;3.526;2022-08-21T15:13:02;6.47;;;1.05;;
52368;SDS011;38298;50.346;3.526;2022-08-21T15:15:30;7.45;;;1.00;;
52368;SDS011;38298;50.346;3.526;2022-08-21T15:17:58;7.68;;;0.98;;
52368;SDS011;38298;50.346;3.526;2022-08-21T15:20:24;4.82;;;1.17;;
52368;SDS011;38298;50.346;3.526;2022-08-21T15:22:50;4.13;;;1.00;;
52368;SDS011;38298;50.346;3.526;2022-08-21T15:25:16;2.83;;;0.80;;
52368;SDS011;38298;50.346;3.526;2022-08-21T15:27:42;4.35;;;1.38;;
52368;SDS011;38298;50.346;3.526;2022-08-21T15:30:09;4.15;;;1.02;;
52368;SDS011;38298;50.346;3.526;2022-08-21T15:32:35;4.72;;;0.82;;
52368;SDS011;38298;50.346;3.526;2022-08-21T15:35:02;3.33;;;0.93;;
52368;SDS011;38298;50.346;3.526;2022-08-21T15:37:28;4.68;;;0.80;;
52368;SDS011;38298;50.346;3.526;2022-08-21T15:39:54;2.47;;;0.82;;
52368;SDS011;38298;50.346;3.526;2022-08-21T15:42:21;5.47;;;0.93;;
52368;SDS011;38298;50.346;3.526;2022-08-21T15:44:48;5.47;;;1.40;;
52368;SDS011;38298;50.346;3.526;2022-08-21T15:47:17;2.28;;;1.00;;
52368;SDS011;38298;50.346;3.526;2022-08-21T15:49:43;4.53;;;1.08;;
52368;SDS011;38298;50.346;3.526;2022-08-21T15:52:10;7.40;;;0.90;;
52368;SDS011;38298;50.346;3.526;2022-08-21T15:54:36;7.35;;;1.15;;
52368;SDS011;38298;50.346;3.526;2022-08-21T15:57:02;4.00;;;0.95;;
52368;SDS011;38298;50.346;3.526;2022-08-21T15:59:28;5.30;;;1.10;;
52368;SDS011;38298;50.346;3.526;2022-08-21T16:01:56;3.83;;;1.13;;
52368;SDS011;38298;50.346;3.526;2022-08-21T16:04:24;2.42;;;0.80;;
52368;SDS011;38298;50.346;3.526;2022-08-21T16:06:50;4.22;;;1.00;;
52368;SDS011;38298;50.346;3.526;2022-08-21T16:09:16;5.72;;;1.20;;
52368;SDS011;38298;50.346;3.526;2022-08-21T16:11:43;5.47;;;1.08;;
52368;SDS011;38298;50.346;3.526;2022-08-21T16:14:13;2.83;;;0.75;;
52368;SDS011;38298;50.346;3.526;2022-08-21T16:16:39;6.25;;;1.13;;
52368;SDS011;38298;50.346;3.526;2022-08-21T16:19:06;4.43;;;0.93;;
52368;SDS011;38298;50.346;3.526;2022-08-21T16:21:32;7.03;;;0.90;;
52368;SDS011;38298;50.346;3.526;2022-08-21T16:23:58;3.95;;;1.02;;
52368;SDS011;38298;50.346;3.526;2022-08-21T16:26:24;6.05;;;1.00;;
52368;SDS011;38298;50.346;3.526;2022-08-21T16:28:52;4.40;;;1.10;;
52368;SDS011;38298;50.346;3.526;2022-08-21T16:31:19;4.57;;;1.15;;
52368;SDS011;38298;50.346;3.526;2022-08-21T16:33:48;5.95;;;1.20;;
52368;SDS011;38298;50.346;3.526;2022-08-21T16:36:14;3.30;;;1.60;;
52368;SDS011;38298;50.346;3.526;2022-08-21T16:38:40;6.50;;;1.63;;
52368;SDS011;38298;50.346;3.526;2022-08-21T16:41:08;5.30;;;1.20;;
52368;SDS011;38298;50.346;3.526;2022-08-21T16:43:35;8.13;;;1.25;;
52368;SDS011;38298;50.346;3.526;2022-08-21T16:46:03;4.50;;;0.88;;
52368;SDS011;38298;50.346;3.526;2022-08-21T16:48:29;6.78;;;1.20;;
52368;SDS011;38298;50.346;3.526;2022-08-21T16:50:56;7.63;;;1.33;;
52368;SDS011;38298;50.346;3.526;2022-08-21T16:53:22;4.10;;;1.10;;
52368;SDS011;38298;50.346;3.526;2022-08-21T16:55:52;8.07;;;1.30;;
52368;SDS011;38298;50.346;3.526;2022-08-21T16:58:20;6.80;;;1.10;;
52368;SDS011;38298;50.346;3.526;2022-08-21T17:03:15;10.73;;;1.50;;
52368;SDS011;38298;50.346;3.526;2022-08-21T17:05:42;6.00;;;1.23;;
52368;SDS011;38298;50.346;3.526;2022-08-21T17:08:08;4.72;;;1.10;;
52368;SDS011;38298;50.346;3.526;2022-08-21T17:10:34;5.22;;;0.98;;
52368;SDS011;38298;50.346;3.526;2022-08-21T17:13:00;5.93;;;1.15;;
52368;SDS011;38298;50.346;3.526;2022-08-21T17:15:28;8.55;;;1.60;;
52368;SDS011;38298;50.346;3.526;2022-08-21T17:17:56;6.10;;;1.02;;
52368;SDS011;38298;50.346;3.526;2022-08-21T17:20:22;5.50;;;1.17;;
52368;SDS011;38298;50.346;3.526;2022-08-21T17:22:50;4.00;;;1.33;;
52368;SDS011;38298;50.346;3.526;2022-08-21T17:25:16;4.18;;;0.82;;
52368;SDS011;38298;50.346;3.526;2022-08-21T17:27:42;7.47;;;1.02;;
52368;SDS011;38298;50.346;3.526;2022-08-21T17:30:09;5.90;;;1.52;;
52368;SDS011;38298;50.346;3.526;2022-08-21T17:32:35;14.55;;;2.20;;
52368;SDS011;38298;50.346;3.526;2022-08-21T17:35:01;7.55;;;2.22;;
52368;SDS011;38298;50.346;3.526;2022-08-21T17:37:28;7.15;;;1.88;;
52368;SDS011;38298;50.346;3.526;2022-08-21T17:39:54;7.78;;;1.83;;
52368;SDS011;38298;50.346;3.526;2022-08-21T17:42:20;6.60;;;1.40;;
52368;SDS011;38298;50.346;3.526;2022-08-21T17:44:47;7.53;;;1.60;;
52368;SDS011;38298;50.346;3.526;2022-08-21T17:47:13;5.72;;;1.40;;
52368;SDS011;38298;50.346;3.526;2022-08-21T17:49:39;9.20;;;1.25;;
52368;SDS011;38298;50.346;3.526;2022-08-21T17:52:05;5.47;;;1.08;;
52368;SDS011;38298;50.346;3.526;2022-08-21T17:54:32;6.03;;;1.33;;
52368;SDS011;38298;50.346;3.526;2022-08-21T17:56:58;4.18;;;1.10;;
52368;SDS011;38298;50.346;3.526;2022-08-21T17:59:25;7.18;;;1.63;;
52368;SDS011;38298;50.346;3.526;2022-08-21T18:01:52;4.82;;;1.30;;
52368;SDS011;38298;50.346;3.526;2022-08-21T18:04:21;6.90;;;1.52;;
52368;SDS011;38298;50.346;3.526;2022-08-21T18:06:47;5.57;;;1.10;;
52368;SDS011;38298;50.346;3.526;2022-08-21T18:09:13;7.82;;;1.10;;
52368;SDS011;38298;50.346;3.526;2022-08-21T18:11:40;3.83;;;1.00;;
52368;SDS011;38298;50.346;3.526;2022-08-21T18:14:07;7.50;;;1.08;;
52368;SDS011;38298;50.346;3.526;2022-08-21T18:16:33;5.13;;;1.63;;
52368;SDS011;38298;50.346;3.526;2022-08-21T18:19:02;6.03;;;1.50;;
52368;SDS011;38298;50.346;3.526;2022-08-21T18:21:29;5.80;;;1.70;;
52368;SDS011;38298;50.346;3.526;2022-08-21T18:23:56;10.38;;;1.98;;
52368;SDS011;38298;50.346;3.526;2022-08-21T18:26:27;6.53;;;1.75;;
52368;SDS011;38298;50.346;3.526;2022-08-21T18:28:55;5.22;;;1.40;;
52368;SDS011;38298;50.346;3.526;2022-08-21T18:31:23;8.40;;;1.40;;
52368;SDS011;38298;50.346;3.526;2022-08-21T18:33:51;6.13;;;1.45;;
52368;SDS011;38298;50.346;3.526;2022-08-21T18:36:17;3.33;;;1.30;;
52368;SDS011;38298;50.346;3.526;2022-08-21T18:38:43;8.07;;;1.52;;
52368;SDS011;38298;50.346;3.526;2022-08-21T18:41:09;7.00;;;1.58;;
52368;SDS011;38298;50.346;3.526;2022-08-21T18:43:36;6.03;;;1.40;;
52368;SDS011;38298;50.346;3.526;2022-08-21T18:46:02;6.78;;;1.48;;
52368;SDS011;38298;50.346;3.526;2022-08-21T18:48:29;4.68;;;1.30;;
52368;SDS011;38298;50.346;3.526;2022-08-21T18:50:55;6.65;;;2.03;;
52368;SDS011;38298;50.346;3.526;2022-08-21T18:53:21;9.15;;;1.42;;
52368;SDS011;38298;50.346;3.526;2022-08-21T18:55:47;7.28;;;1.38;;
52368;SDS011;38298;50.346;3.526;2022-08-21T18:58:13;7.05;;;1.80;;
52368;SDS011;38298;50.346;3.526;2022-08-21T19:00:42;6.50;;;1.98;;
52368;SDS011;38298;50.346;3.526;2022-08-21T19:03:10;14.57;;;2.45;;
52368;SDS011;38298;50.346;3.526;2022-08-21T19:05:36;8.77;;;2.63;;
52368;SDS011;38298;50.346;3.526;2022-08-21T19:08:07;9.95;;;2.85;;
52368;SDS011;38298;50.346;3.526;2022-08-21T19:10:33;8.07;;;2.47;;
52368;SDS011;38298;50.346;3.526;2022-08-21T19:13:01;9.13;;;2.53;;
52368;SDS011;38298;50.346;3.526;2022-08-21T19:15:29;10.48;;;3.13;;
52368;SDS011;38298;50.346;3.526;2022-08-21T19:17:55;11.57;;;2.30;;
52368;SDS011;38298;50.346;3.526;2022-08-21T19:22:48;7.65;;;2.05;;
52368;SDS011;38298;50.346;3.526;2022-08-21T19:25:14;9.75;;;2.45;;
52368;SDS011;38298;50.346;3.526;2022-08-21T19:27:40;9.68;;;2.78;;
52368;SDS011;38298;50.346;3.526;2022-08-21T19:30:06;11.52;;;2.20;;
52368;SDS011;38298;50.346;3.526;2022-08-21T19:32:33;8.07;;;2.15;;
52368;SDS011;38298;50.346;3.526;2022-08-21T19:34:59;11.80;;;2.10;;
52368;SDS011;38298;50.346;3.526;2022-08-21T19:37:26;8.18;;;2.10;;
52368;SDS011;38298;50.346;3.526;2022-08-21T19:39:52;5.43;;;1.80;;
52368;SDS011;38298;50.346;3.526;2022-08-21T19:42:18;7.28;;;2.00;;
52368;SDS011;38298;50.346;3.526;2022-08-21T19:44:46;8.75;;;1.80;;
52368;SDS011;38298;50.346;3.526;2022-08-21T19:47:13;6.13;;;1.48;;
52368;SDS011;38298;50.346;3.526;2022-08-21T19:49:40;3.30;;;1.40;;
52368;SDS011;38298;50.346;3.526;2022-08-21T19:52:07;6.75;;;1.70;;
52368;SDS011;38298;50.346;3.526;2022-08-21T19:54:33;4.88;;;1.52;;
52368;SDS011;38298;50.346;3.526;2022-08-21T19:57:03;6.43;;;1.45;;
52368;SDS011;38298;50.346;3.526;2022-08-21T19:59:31;17.05;;;2.08;;
52368;SDS011;38298;50.346;3.526;2022-08-21T20:01:58;6.88;;;1.52;;
52368;SDS011;38298;50.346;3.526;2022-08-21T20:04:24;8.90;;;1.50;;
52368;SDS011;38298;50.346;3.526;2022-08-21T20:06:50;6.40;;;1.65;;
52368;SDS011;38298;50.346;3.526;2022-08-21T20:09:16;3.92;;;1.60;;
52368;SDS011;38298;50.346;3.526;2022-08-21T20:11:47;6.10;;;1.52;;
52368;SDS011;38298;50.346;3.526;2022-08-21T20:14:14;10.57;;;2.30;;
52368;SDS011;38298;50.346;3.526;2022-08-21T20:16:41;8.00;;;2.38;;
52368;SDS011;38298;50.346;3.526;2022-08-21T20:19:08;10.73;;;2.97;;
52368;SDS011;38298;50.346;3.526;2022-08-21T20:21:35;11.93;;;2.75;;
52368;SDS011;38298;50.346;3.526;2022-08-21T20:24:01;13.90;;;2.83;;
52368;SDS011;38298;50.346;3.526;2022-08-21T20:26:27;9.27;;;2.60;;
52368;SDS011;38298;50.346;3.526;2022-08-21T20:28:54;10.07;;;1.85;;
52368;SDS011;38298;50.346;3.526;2022-08-21T20:31:20;4.38;;;1.60;;
52368;SDS011;38298;50.346;3.526;2022-08-21T20:33:47;4.72;;;1.58;;
52368;SDS011;38298;50.346;3.526;2022-08-21T20:36:13;3.80;;;1.50;;
52368;SDS011;38298;50.346;3.526;2022-08-21T20:38:39;6.15;;;1.35;;
52368;SDS011;38298;50.346;3.526;2022-08-21T20:41:05;4.72;;;1.60;;
52368;SDS011;38298;50.346;3.526;2022-08-21T20:43:35;8.38;;;1.48;;
52368;SDS011;38298;50.346;3.526;2022-08-21T20:46:03;4.72;;;1.27;;
52368;SDS011;38298;50.346;3.526;2022-08-21T20:48:33;5.05;;;1.30;;
52368;SDS011;38298;50.346;3.526;2022-08-21T20:51:47;5.72;;;1.50;;
52368;SDS011;38298;50.346;3.526;2022-08-21T20:59:13;6.25;;;1.23;;
52368;SDS011;38298;50.346;3.526;2022-08-21T21:01:41;4.25;;;1.20;;
52368;SDS011;38298;50.346;3.526;2022-08-21T21:04:11;8.27;;;1.63;;
52368;SDS011;38298;50.346;3.526;2022-08-21T21:06:38;4.00;;;1.20;;
52368;SDS011;38298;50.346;3.526;2022-08-21T21:09:15;8.32;;;1.40;;
52368;SDS011;38298;50.346;3.526;2022-08-21T21:11:43;4.90;;;1.10;;
52368;SDS011;38298;50.346;3.526;2022-08-21T21:14:14;7.28;;;1.10;;
52368;SDS011;38298;50.346;3.526;2022-08-21T21:21:57;6.63;;;2.35;;
52368;SDS011;38298;50.346;3.526;2022-08-21T21:24:25;6.55;;;1.40;;
52368;SDS011;38298;50.346;3.526;2022-08-21T21:26:56;5.50;;;1.45;;
52368;SDS011;38298;50.346;3.526;2022-08-21T21:31:50;8.02;;;1.27;;
52368;SDS011;38298;50.346;3.526;2022-08-21T21:34:17;5.85;;;1.20;;
52368;SDS011;38298;50.346;3.526;2022-08-21T21:47:12;6.47;;;1.35;;
52368;SDS011;38298;50.346;3.526;2022-08-21T21:52:38;13.00;;;2.33;;
52368;SDS011;38298;50.346;3.526;2022-08-21T22:00:18;8.70;;;1.40;;
52368;SDS011;38298;50.346;3.526;2022-08-21T22:08:05;8.57;;;1.38;;
52368;SDS011;38298;50.346;3.526;2022-08-21T22:10:46;8.73;;;1.58;;
52368;SDS011;38298;50.346;3.526;2022-08-21T22:15:42;12.15;;;1.58;;
52368;SDS011;38298;50.346;3.526;2022-08-21T22:18:09;3.72;;;1.30;;
52368;SDS011;38298;50.346;3.526;2022-08-21T22:20:56;7.43;;;1.25;;
52368;SDS011;38298;50.346;3.526;2022-08-21T22:23:25;6.55;;;1.45;;
52368;SDS011;38298;50.346;3.526;2022-08-21T22:25:53;10.07;;;1.58;;
52368;SDS011;38298;50.346;3.526;2022-08-21T22:28:22;6.15;;;1.10;;
52368;SDS011;38298;50.346;3.526;2022-08-21T22:30:52;7.72;;;1.25;;
52368;SDS011;38298;50.346;3.526;2022-08-21T22:33:20;5.07;;;1.30;;
52368;SDS011;38298;50.346;3.526;2022-08-21T22:35:47;4.47;;;1.30;;
52368;SDS011;38298;50.346;3.526;2022-08-21T22:40:43;6.70;;;1.42;;
52368;SDS011;38298;50.346;3.526;2022-08-21T22:43:20;6.72;;;1.13;;
52368;SDS011;38298;50.346;3.526;2022-08-21T22:46:00;4.35;;;1.20;;
52368;SDS011;38298;50.346;3.526;2022-08-21T22:48:29;5.65;;;1.35;;
52368;SDS011;38298;50.346;3.526;2022-08-21T22:51:01;4.82;;;1.00;;
52368;SDS011;38298;50.346;3.526;2022-08-21T22:53:28;4.85;;;1.08;;
52368;SDS011;38298;50.346;3.526;2022-08-21T22:55:58;8.15;;;1.40;;
52368;SDS011;38298;50.346;3.526;2022-08-21T23:03:50;5.30;;;1.30;;
52368;SDS011;38298;50.346;3.526;2022-08-21T23:06:59;3.63;;;1.15;;
52368;SDS011;38298;50.346;3.526;2022-08-21T23:09:20;9.15;;;1.23;;
52368;SDS011;38298;50.346;3.526;2022-08-21T23:11:46;7.03;;;1.00;;
52368;SDS011;38298;50.346;3.526;2022-08-21T23:14:13;5.90;;;1.45;;
52368;SDS011;38298;50.346;3.526;2022-08-21T23:16:58;9.13;;;1.13;;
52368;SDS011;38298;50.346;3.526;2022-08-21T23:27:24;10.27;;;1.85;;
52368;SDS011;38298;50.346;3.526;2022-08-21T23:35:01;8.15;;;1.27;;
52368;SDS011;38298;50.346;3.526;2022-08-21T23:37:40;6.30;;;1.30;;
52368;SDS011;38298;50.346;3.526;2022-08-21T23:40:34;3.97;;;1.20;;
52368;SDS011;38298;50.346;3.526;2022-08-21T23:50:44;9.80;;;2.28;;
52368;SDS011;38298;50.346;3.526;2022-08-21T23:53:26;8.05;;;2.40;;
